Adin, CA (96006)

12:20 AM PST on February 09, 2016 (GMT -0800)
Rocky Acres | | Change Station
CLOSE
Current Station
Personal Weather Station
Location: Adin, CA
Elevation: 4236 ft
Nearby Weather Stations

Elev 4236 ft 41.21 °N, 120.98 °W | Updated 10 seconds ago

Clear
Clear
45.0 °F
Feels Like 41 °F
N
7.3
Wind Variable Wind from SE

Today
High -- | Low -- °F
--% Chance of Precip.
Yesterday
High -- | Low -- °F
Precip. -- in
Pressure 30.43 in
Visibility 9.0 miles
Clouds Clear
Windchill 41 °F
Dew Point 32 °F
Humidity 59%
Rainfall 0.00 in
Snow Depth Not available.
7:06 AM 5:30 PM
New Moon, 1% visible
METAR KAAT 090755Z AUTO 00000KT 9SM CLR 03/M01 A3043 RMK AO2 SLP304 T00331006 401561039 $
Pressure 30.43 in
Visibility 9.0 miles
Clouds Clear
Windchill 41 °F
Dew Point 32 °F
Humidity 59%
Rainfall 0.00 in
Snow Depth Not available.
7:06 AM 5:30 PM
New Moon, 1% visible
METAR KAAT 090755Z AUTO 00000KT 9SM CLR 03/M01 A3043 RMK AO2 SLP304 T00331006 401561039 $

10-Day Weather Forecast

Almanac

Astronomy

Feb. 09, 2016 Rise Set
Actual Time
Civil Twilight
Nautical Twilight
Astronomical Twilight
Moon
Length of Visible Light
Length of Day
Tomorrow will be .
, % of the Moon is Illuminated

Today's Extremes

State Highs State Lows

Community

WunderPhotos

Upload Photos

1,891,571 photos uploaded!

WunderBlog® & News

Nearby

Air Quality

  Air Quality AQ Index Pollutant
Not available.

Snow Depth

Station Depth Elevation

Earthquake Activity

City Distance Mag. Time & Date
Minimum magnitude displayed is 2.5.

Coastal Water Temperatures

Place Temperature

Stations

Nearby Weather Stations

Station Location Temp. Windchill Dew Point Humidity Wind Precip. Elev Updated Type
                   

Watches & Warnings

There are currently no watches in effect.